Time;durP1;ratioP1;P1;durP2;ratioP2;P2;SDS_P1;SDS_P2;PMS_P1;PMS_P2;Temp;Humidity;BMP_temperature;BMP_pressure;BME280_temperature;BME280_humidity;BME280_pressure;Samples;Min_cycle;Max_cycle;Signal;HPM_P1;HPM_P2
2023/07/07 00:00:39;;;;;;;7.67;4.10;;;17.90;66.60;;;;;;4966259;28;20236;-71
2023/07/07 00:03:05;;;;;;;8.00;4.20;;;17.70;66.90;;;;;;4961922;28;20189;-70
2023/07/07 00:05:31;;;;;;;11.07;4.30;;;17.60;67.00;;;;;;4977928;28;20446;-72
2023/07/07 00:07:57;;;;;;;6.00;4.27;;;17.60;67.20;;;;;;4977290;28;20450;-71
2023/07/07 00:10:23;;;;;;;6.10;3.87;;;17.60;66.90;;;;;;4968773;28;20674;-73
2023/07/07 00:12:49;;;;;;;7.13;4.47;;;17.60;66.70;;;;;;4963028;28;20450;-71
2023/07/07 00:15:15;;;;;;;6.13;4.10;;;17.60;67.00;;;;;;4972735;28;20464;-72
2023/07/07 00:17:41;;;;;;;13.93;4.33;;;17.50;67.20;;;;;;4973717;28;20527;-71
2023/07/07 00:20:09;;;;;;;6.33;3.53;;;17.50;66.90;;;;;;4962151;28;20488;-71
2023/07/07 00:22:35;;;;;;;7.70;4.07;;;17.50;66.30;;;;;;4960877;28;20442;-71
2023/07/07 00:25:02;;;;;;;5.07;3.50;;;17.50;66.00;;;;;;4967480;28;20440;-73
2023/07/07 00:27:28;;;;;;;6.47;4.00;;;17.50;65.80;;;;;;4964991;28;20490;-72
2023/07/07 00:29:53;;;;;;;6.83;3.97;;;17.60;65.60;;;;;;4960121;28;20479;-73
2023/07/07 00:32:19;;;;;;;6.20;3.67;;;17.50;66.10;;;;;;4961682;28;20598;-72
2023/07/07 00:34:45;;;;;;;7.97;4.40;;;17.50;65.80;;;;;;4971983;28;20207;-72
2023/07/07 00:37:10;;;;;;;7.30;4.70;;;17.50;66.70;;;;;;4972071;28;20230;-73
2023/07/07 00:39:36;;;;;;;9.40;4.70;;;17.50;67.30;;;;;;4966358;28;20935;-72
2023/07/07 00:42:02;;;;;;;8.37;4.23;;;17.50;67.60;;;;;;4956539;28;20191;-72
2023/07/07 00:44:50;;;;;;;6.10;4.30;;;17.60;67.30;;;;;;4968442;28;20201;-72
2023/07/07 00:47:17;;;;;;;7.57;4.40;;;17.50;67.30;;;;;;4964225;28;20295;-72
2023/07/07 00:49:42;;;;;;;8.80;3.97;;;17.40;68.00;;;;;;4960383;28;20706;-72
2023/07/07 00:52:08;;;;;;;9.43;4.00;;;17.40;67.90;;;;;;4964655;28;20438;-72
2023/07/07 00:54:35;;;;;;;5.30;3.50;;;17.30;68.00;;;;;;4966521;28;20211;-73
2023/07/07 00:57:03;;;;;;;5.50;3.80;;;17.30;68.20;;;;;;4970684;28;20669;-71
2023/07/07 00:59:38;;;;;;;7.57;4.57;;;17.20;68.30;;;;;;4965471;28;20490;-72
2023/07/07 01:02:12;;;;;;;8.00;4.63;;;17.10;68.50;;;;;;4964117;28;21174;-72
2023/07/07 01:04:42;;;;;;;8.30;3.97;;;17.10;68.60;;;;;;4963970;28;20462;-73
2023/07/07 01:07:13;;;;;;;5.90;3.93;;;17.00;68.60;;;;;;4971701;28;20788;-72
2023/07/07 01:09:39;;;;;;;7.63;4.03;;;17.10;68.60;;;;;;4962004;28;20451;-72
2023/07/07 01:12:13;;;;;;;6.37;4.40;;;17.00;68.00;;;;;;4961877;28;20794;-71
2023/07/07 01:14:41;;;;;;;6.37;3.83;;;17.00;68.80;;;;;;4962265;28;20276;-71
2023/07/07 01:17:36;;;;;;;7.87;4.50;;;17.00;68.90;;;;;;4963898;28;20511;-71
2023/07/07 01:20:07;;;;;;;8.17;4.20;;;17.00;69.10;;;;;;4948581;28;20588;-72
2023/07/07 01:22:56;;;;;;;7.23;4.17;;;16.90;69.20;;;;;;4950235;28;20434;-72
2023/07/07 01:25:22;;;;;;;8.23;4.27;;;16.90;69.50;;;;;;4951576;28;20461;-72
2023/07/07 01:27:48;;;;;;;7.30;4.27;;;16.80;69.80;;;;;;4967108;28;20448;-72
2023/07/07 01:30:52;;;;;;;8.40;4.33;;;16.90;69.20;;;;;;4955656;28;20463;-72
2023/07/07 01:33:24;;;;;;;6.93;4.27;;;16.90;69.10;;;;;;4954228;28;20211;-73
2023/07/07 01:35:49;;;;;;;6.53;4.30;;;16.80;68.90;;;;;;4961582;28;20434;-72
2023/07/07 01:38:42;;;;;;;7.07;4.57;;;16.80;69.40;;;;;;4963262;28;20583;-73
2023/07/07 01:41:19;;;;;;;7.67;4.07;;;16.80;69.40;;;;;;4950092;28;20208;-73
2023/07/07 01:44:03;;;;;;;6.20;4.00;;;16.80;69.40;;;;;;4957322;28;21025;-72
2023/07/07 01:46:33;;;;;;;8.47;4.13;;;17.00;69.10;;;;;;4963673;28;20811;-72
2023/07/07 01:49:22;;;;;;;6.40;3.70;;;17.00;68.60;;;;;;4972703;28;20431;-73
2023/07/07 01:51:54;;;;;;;10.47;4.73;;;16.90;68.90;;;;;;4954884;28;20541;-72
2023/07/07 01:54:21;;;;;;;7.97;4.37;;;17.00;68.90;;;;;;4964662;28;20435;-72
2023/07/07 01:56:49;;;;;;;6.53;4.43;;;16.90;68.30;;;;;;4966854;28;20442;-72
2023/07/07 01:59:16;;;;;;;6.30;3.87;;;16.90;68.00;;;;;;4967856;28;20489;-73
2023/07/07 02:01:42;;;;;;;7.33;4.47;;;16.80;68.20;;;;;;4951106;28;20955;-73
2023/07/07 02:04:08;;;;;;;8.83;4.33;;;16.70;68.20;;;;;;4961601;28;20446;-73
2023/07/07 02:06:34;;;;;;;10.90;4.57;;;16.70;68.90;;;;;;4965542;28;20433;-73
2023/07/07 02:08:59;;;;;;;7.80;4.00;;;16.70;69.20;;;;;;4964099;28;20203;-73
2023/07/07 02:11:25;;;;;;;6.70;4.70;;;16.80;69.20;;;;;;4955684;28;20202;-73
2023/07/07 02:13:51;;;;;;;9.33;4.57;;;16.70;69.50;;;;;;4958857;28;20187;-71
2023/07/07 02:16:16;;;;;;;6.33;4.17;;;16.70;69.80;;;;;;4962385;28;20232;-71
2023/07/07 02:18:48;;;;;;;6.20;3.47;;;16.80;69.70;;;;;;4945418;28;20230;-72
2023/07/07 02:21:16;;;;;;;7.70;4.53;;;16.80;69.70;;;;;;4953710;28;20246;-72
2023/07/07 02:23:42;;;;;;;6.43;3.80;;;16.70;69.70;;;;;;4955927;28;20440;-71
2023/07/07 02:26:07;;;;;;;8.40;4.93;;;16.70;69.80;;;;;;4960283;28;20529;-71
2023/07/07 02:28:33;;;;;;;13.00;4.27;;;16.40;70.10;;;;;;4963567;28;20521;-74
2023/07/07 02:30:58;;;;;;;7.30;4.30;;;16.20;70.80;;;;;;4951171;28;20299;-71
2023/07/07 02:33:30;;;;;;;7.70;4.03;;;16.00;71.10;;;;;;4961377;28;20204;-71
2023/07/07 02:36:00;;;;;;;9.50;4.13;;;15.90;71.30;;;;;;4939656;28;20187;-71
2023/07/07 02:38:26;;;;;;;8.40;4.70;;;15.90;71.30;;;;;;4953733;28;20445;-72
2023/07/07 02:40:52;;;;;;;9.13;4.43;;;15.90;71.30;;;;;;4953186;28;20487;-72
2023/07/07 02:43:17;;;;;;;7.93;4.57;;;15.90;71.00;;;;;;4952421;28;20436;-71
2023/07/07 02:45:44;;;;;;;7.10;4.57;;;15.90;71.30;;;;;;4956743;28;20664;-72
2023/07/07 02:48:09;;;;;;;10.40;5.03;;;15.90;71.30;;;;;;4969940;28;20245;-72
2023/07/07 02:50:35;;;;;;;8.83;4.30;;;15.90;71.30;;;;;;4953613;28;20479;-72
2023/07/07 02:53:02;;;;;;;8.43;4.20;;;15.90;71.30;;;;;;4955992;28;20179;-71
2023/07/07 02:55:28;;;;;;;8.80;4.70;;;15.80;71.30;;;;;;4960701;28;20192;-72
2023/07/07 02:57:53;;;;;;;13.63;4.80;;;15.90;71.30;;;;;;4951524;28;20428;-72
2023/07/07 03:00:19;;;;;;;10.00;4.53;;;15.90;71.10;;;;;;4954036;28;20223;-72
2023/07/07 03:02:46;;;;;;;7.43;4.20;;;16.00;71.10;;;;;;4958656;28;20576;-72
2023/07/07 03:05:12;;;;;;;6.63;4.10;;;15.90;71.30;;;;;;4969660;28;20191;-73
2023/07/07 03:07:38;;;;;;;7.67;4.50;;;15.80;71.40;;;;;;4970040;28;20429;-72
2023/07/07 03:10:06;;;;;;;8.37;4.30;;;15.70;71.70;;;;;;4958456;28;20472;-73
2023/07/07 03:12:32;;;;;;;7.30;4.03;;;15.70;71.70;;;;;;4959879;28;20195;-72
2023/07/07 03:14:57;;;;;;;7.83;4.17;;;15.60;71.70;;;;;;4966303;28;20795;-72
2023/07/07 03:17:23;;;;;;;6.13;3.77;;;15.60;71.70;;;;;;4989740;23;20711;-80
2023/07/07 03:19:49;;;;;;;8.37;4.00;;;15.50;71.80;;;;;;4975694;28;20239;-79
2023/07/07 03:22:15;;;;;;;5.40;3.90;;;15.40;71.80;;;;;;4952119;28;20236;-80
2023/07/07 03:24:41;;;;;;;8.10;4.10;;;15.40;71.80;;;;;;4953061;29;20412;-81
2023/07/07 03:27:06;;;;;;;8.70;4.33;;;15.40;71.80;;;;;;4958868;29;20454;-80
2023/07/07 03:29:32;;;;;;;5.30;3.53;;;15.50;71.60;;;;;;4956009;28;20657;-81
2023/07/07 03:31:58;;;;;;;7.37;3.93;;;15.40;71.60;;;;;;4955587;28;20216;-81
2023/07/07 03:34:25;;;;;;;7.90;4.00;;;15.50;71.70;;;;;;4961176;28;20203;-79
2023/07/07 03:36:51;;;;;;;16.07;4.80;;;15.50;71.60;;;;;;4952886;28;20446;-78
2023/07/07 03:39:17;;;;;;;7.40;4.20;;;15.50;71.70;;;;;;4952790;29;20517;-80
2023/07/07 03:41:42;;;;;;;10.13;4.93;;;15.50;71.60;;;;;;4962039;28;20507;-79
2023/07/07 03:44:09;;;;;;;8.77;4.10;;;15.50;71.40;;;;;;4964380;28;20206;-79
2023/07/07 03:46:35;;;;;;;8.03;4.73;;;15.50;71.40;;;;;;4958601;28;20211;-80
2023/07/07 03:49:01;;;;;;;6.93;3.87;;;15.60;71.60;;;;;;4963451;29;20443;-79
2023/07/07 03:51:34;;;;;;;5.60;3.93;;;15.60;71.40;;;;;;4967904;28;20249;-78
2023/07/07 03:54:00;;;;;;;9.43;4.70;;;15.70;71.40;;;;;;4971888;28;20184;-79
2023/07/07 03:56:26;;;;;;;11.03;4.37;;;15.70;71.40;;;;;;4955782;28;20495;-81
2023/07/07 03:58:52;;;;;;;6.93;4.50;;;15.70;71.40;;;;;;4962092;28;20211;-79
2023/07/07 04:01:18;;;;;;;7.10;5.33;;;15.60;71.40;;;;;;4958986;28;20460;-80
2023/07/07 04:03:47;;;;;;;7.37;4.20;;;15.60;71.70;;;;;;4968219;28;20205;-81
2023/07/07 04:06:18;;;;;;;9.17;3.67;;;15.60;71.70;;;;;;4961031;29;20443;-81
2023/07/07 04:08:44;;;;;;;9.90;4.30;;;15.70;71.40;;;;;;4955539;28;20502;-79
2023/07/07 04:11:16;;;;;;;5.90;3.73;;;15.80;71.30;;;;;;4964099;28;20482;-79
2023/07/07 04:13:43;;;;;;;9.17;4.60;;;15.90;71.10;;;;;;4961551;28;20192;-79
2023/07/07 04:16:16;;;;;;;7.23;4.67;;;15.90;71.10;;;;;;4966012;29;20447;-79
2023/07/07 04:18:44;;;;;;;7.10;4.43;;;15.90;71.40;;;;;;4958842;28;20462;-79
2023/07/07 04:21:14;;;;;;;6.23;4.20;;;15.80;71.40;;;;;;4969613;28;20490;-80
2023/07/07 04:23:42;;;;;;;7.40;4.60;;;15.90;71.40;;;;;;4961265;28;20433;-79
2023/07/07 04:26:09;;;;;;;10.23;5.10;;;16.00;71.30;;;;;;4969894;29;20460;-81
2023/07/07 04:28:36;;;;;;;7.07;4.40;;;16.00;71.30;;;;;;4967814;28;20463;-78
2023/07/07 04:31:03;;;;;;;6.93;4.60;;;16.00;71.40;;;;;;4964672;28;20535;-80
2023/07/07 04:33:30;;;;;;;6.03;4.30;;;16.10;71.10;;;;;;4961575;28;20434;-79
2023/07/07 04:35:58;;;;;;;11.23;4.87;;;16.30;70.70;;;;;;4969687;28;20439;-79
2023/07/07 04:38:30;;;;;;;10.00;5.07;;;16.30;70.80;;;;;;4966644;28;20541;-80
2023/07/07 04:41:20;;;;;;;10.17;4.63;;;16.20;71.10;;;;;;4958004;28;21020;-80
2023/07/07 04:43:48;;;;;;;6.67;4.73;;;16.20;71.30;;;;;;4955072;28;20463;-79
2023/07/07 04:46:24;;;;;;;7.93;4.60;;;16.20;71.30;;;;;;4954038;29;20437;-79
2023/07/07 04:48:50;;;;;;;7.83;4.50;;;16.30;71.10;;;;;;4964608;29;20540;-80
2023/07/07 04:51:16;;;;;;;8.43;5.03;;;16.40;71.00;;;;;;4960941;28;20996;-80
2023/07/07 04:53:42;;;;;;;8.23;4.70;;;16.40;70.70;;;;;;4963345;28;20516;-79
2023/07/07 04:56:16;;;;;;;10.20;5.53;;;16.40;70.70;;;;;;4964544;29;20439;-80
2023/07/07 04:58:43;;;;;;;9.67;4.77;;;16.50;70.70;;;;;;4967450;28;20192;-79
2023/07/07 05:01:10;;;;;;;9.67;5.10;;;16.70;70.40;;;;;;4956490;28;20487;-80
2023/07/07 05:03:38;;;;;;;7.63;4.50;;;16.80;69.90;;;;;;4961436;28;20439;-78
2023/07/07 05:06:04;;;;;;;7.83;4.50;;;16.80;69.90;;;;;;4956840;29;20531;-81
2023/07/07 05:08:37;;;;;;;8.03;5.03;;;16.80;69.90;;;;;;4963985;28;20440;-79
2023/07/07 05:11:03;;;;;;;10.97;5.70;;;16.70;70.10;;;;;;4964645;28;20471;-81
2023/07/07 05:13:29;;;;;;;9.67;4.80;;;16.70;70.10;;;;;;4965657;28;20533;-79
2023/07/07 05:16:00;;;;;;;9.23;4.87;;;16.70;70.10;;;;;;4968633;28;20439;-78
2023/07/07 05:18:25;;;;;;;7.50;5.10;;;16.80;70.10;;;;;;4957161;28;20524;-77
2023/07/07 05:20:51;;;;;;;9.00;5.77;;;16.90;69.80;;;;;;4965504;28;20495;-79
2023/07/07 05:23:17;;;;;;;9.17;5.77;;;17.00;69.40;;;;;;4968844;28;20188;-78
2023/07/07 05:25:45;;;;;;;10.90;5.83;;;17.10;69.20;;;;;;4967848;29;20203;-77
2023/07/07 05:28:10;;;;;;;8.00;5.20;;;17.10;69.20;;;;;;4963615;28;20480;-78
2023/07/07 05:30:39;;;;;;;13.73;5.40;;;17.10;69.20;;;;;;4963205;28;20467;-80
2023/07/07 05:33:04;;;;;;;8.67;5.30;;;17.10;69.40;;;;;;4967480;28;20199;-81
2023/07/07 05:35:30;;;;;;;10.40;5.50;;;17.20;69.10;;;;;;4962522;28;20441;-79
2023/07/07 05:37:56;;;;;;;7.63;4.67;;;17.20;69.20;;;;;;4961934;28;20608;-79
2023/07/07 05:40:22;;;;;;;13.17;5.80;;;17.30;69.40;;;;;;4960587;28;20613;-79
2023/07/07 05:42:47;;;;;;;9.77;5.37;;;17.20;69.20;;;;;;4953492;28;20285;-80
2023/07/07 05:45:13;;;;;;;12.50;6.50;;;17.30;69.50;;;;;;4962582;28;20243;-80
2023/07/07 05:47:39;;;;;;;12.50;6.67;;;17.40;69.70;;;;;;4957499;29;20238;-79
2023/07/07 05:50:05;;;;;;;13.27;6.90;;;17.60;69.90;;;;;;4950888;28;20863;-79
2023/07/07 05:52:31;;;;;;;14.80;7.10;;;17.70;69.80;;;;;;4957986;28;20202;-80
2023/07/07 05:54:57;;;;;;;16.37;7.43;;;17.80;69.80;;;;;;4963016;29;20459;-78
2023/07/07 05:57:23;;;;;;;12.13;6.50;;;17.80;69.90;;;;;;4964063;29;20835;-79
2023/07/07 05:59:49;;;;;;;16.30;7.60;;;17.90;69.50;;;;;;4960666;28;20480;-79
2023/07/07 06:02:14;;;;;;;15.93;6.70;;;17.80;69.50;;;;;;4965072;28;20215;-81
2023/07/07 06:04:41;;;;;;;12.30;6.27;;;17.90;69.50;;;;;;4961770;28;20202;-80
2023/07/07 06:07:07;;;;;;;13.70;6.30;;;17.90;69.50;;;;;;4960711;29;20662;-80
2023/07/07 06:09:33;;;;;;;14.20;7.07;;;18.10;69.20;;;;;;4956334;28;20530;-79
2023/07/07 06:11:59;;;;;;;10.77;6.13;;;18.30;69.10;;;;;;4958324;28;20439;-80
2023/07/07 06:14:25;;;;;;;15.07;6.00;;;18.30;69.10;;;;;;4960084;29;20209;-79
2023/07/07 06:16:50;;;;;;;12.60;6.47;;;18.50;68.30;;;;;;4961007;28;20471;-78
2023/07/07 06:19:16;;;;;;;11.80;6.80;;;18.50;68.30;;;;;;4948398;28;20483;-79
2023/07/07 06:21:42;;;;;;;11.10;5.83;;;18.40;68.00;;;;;;4956375;28;20194;-81
2023/07/07 06:24:07;;;;;;;8.57;5.57;;;18.40;68.20;;;;;;4962151;28;20220;-81
2023/07/07 06:26:33;;;;;;;9.80;6.10;;;18.50;68.20;;;;;;4956154;29;20185;-80
2023/07/07 06:28:59;;;;;;;13.60;6.70;;;18.60;68.00;;;;;;4953288;29;20195;-81
2023/07/07 06:31:28;;;;;;;9.93;6.63;;;18.50;68.00;;;;;;4957255;28;20216;-78
2023/07/07 06:33:54;;;;;;;10.10;5.60;;;18.60;67.90;;;;;;4957055;28;20192;-78
2023/07/07 06:36:20;;;;;;;10.40;5.70;;;18.70;68.20;;;;;;4957599;28;20434;-79
2023/07/07 06:38:46;;;;;;;11.77;5.60;;;18.80;67.30;;;;;;4958429;28;20213;-79
2023/07/07 06:41:13;;;;;;;11.40;6.40;;;19.00;67.50;;;;;;4960408;28;20225;-79
2023/07/07 06:43:38;;;;;;;7.97;5.43;;;19.10;66.70;;;;;;4965490;28;20191;-78
2023/07/07 06:46:04;;;;;;;10.60;5.70;;;19.10;67.00;;;;;;4965723;28;20430;-78
2023/07/07 06:48:30;;;;;;;10.47;6.17;;;19.30;66.60;;;;;;4955621;29;20225;-80
2023/07/07 06:50:55;;;;;;;8.03;5.50;;;19.30;66.30;;;;;;4960908;28;20656;-80
2023/07/07 06:53:21;;;;;;;10.70;6.20;;;19.50;66.60;;;;;;4959763;28;20188;-80
2023/07/07 06:55:47;;;;;;;8.90;5.60;;;19.60;66.10;;;;;;4959532;29;20278;-81
2023/07/07 06:58:13;;;;;;;10.40;6.40;;;19.70;65.80;;;;;;4954718;29;20255;-79
2023/07/07 07:00:41;;;;;;;12.10;6.43;;;19.80;65.80;;;;;;4953736;28;20344;-79
2023/07/07 07:03:06;;;;;;;12.87;6.10;;;19.80;65.40;;;;;;4960178;28;20464;-80
2023/07/07 07:05:32;;;;;;;13.20;6.53;;;19.90;65.60;;;;;;4961735;29;20447;-81
2023/07/07 07:07:57;;;;;;;10.00;5.90;;;19.90;65.60;;;;;;4958299;29;20194;-80
2023/07/07 07:10:23;;;;;;;10.67;6.20;;;20.10;65.30;;;;;;4960256;28;20237;-80
2023/07/07 07:12:49;;;;;;;10.70;5.50;;;20.30;64.40;;;;;;4952731;28;20286;-79
2023/07/07 07:15:15;;;;;;;9.20;5.40;;;20.50;63.70;;;;;;4958322;28;20228;-80
2023/07/07 07:17:40;;;;;;;9.97;5.83;;;20.60;63.20;;;;;;4959291;28;20675;-80
2023/07/07 07:20:08;;;;;;;12.63;6.13;;;20.70;63.50;;;;;;4962770;28;20232;-80
2023/07/07 07:22:34;;;;;;;10.10;5.70;;;20.70;63.10;;;;;;4956767;28;20185;-82
2023/07/07 07:25:00;;;;;;;9.80;5.30;;;20.70;63.10;;;;;;4956423;29;20448;-81
2023/07/07 07:27:25;;;;;;;10.93;6.00;;;20.90;63.20;;;;;;4947628;28;20225;-80
2023/07/07 07:29:51;;;;;;;11.23;5.90;;;21.00;63.20;;;;;;4956343;28;20485;-80
2023/07/07 07:32:18;;;;;;;11.37;6.80;;;21.00;62.90;;;;;;4953798;28;20187;-82
2023/07/07 07:34:43;;;;;;;12.10;7.00;;;21.20;62.80;;;;;;4966491;28;20448;-82
2023/07/07 07:37:10;;;;;;;13.17;6.60;;;21.30;62.30;;;;;;4953698;28;20436;-81
2023/07/07 07:39:36;;;;;;;14.53;6.10;;;21.40;62.00;;;;;;4965827;28;20478;-80
2023/07/07 07:42:03;;;;;;;12.03;6.43;;;21.50;62.00;;;;;;4962995;28;20530;-80
2023/07/07 07:44:29;;;;;;;13.83;6.70;;;21.60;61.20;;;;;;4962189;28;20447;-81
2023/07/07 07:46:56;;;;;;;9.63;6.07;;;21.70;61.50;;;;;;4960690;28;20774;-80
2023/07/07 07:49:26;;;;;;;12.13;6.00;;;21.80;60.30;;;;;;4957500;28;20446;-80
2023/07/07 07:51:52;;;;;;;10.57;5.87;;;21.90;60.00;;;;;;4957263;28;20442;-81
2023/07/07 07:54:20;;;;;;;14.63;5.30;;;22.10;60.10;;;;;;4954854;28;20484;-79
2023/07/07 07:56:46;;;;;;;11.57;6.40;;;22.30;59.10;;;;;;4963233;29;20194;-79
2023/07/07 07:59:12;;;;;;;9.67;5.03;;;22.40;59.20;;;;;;4965447;28;20481;-83
2023/07/07 08:01:38;;;;;;;15.60;5.97;;;22.50;59.30;;;;;;4959683;28;20558;-80
2023/07/07 08:04:05;;;;;;;10.00;5.33;;;22.50;59.30;;;;;;4966851;28;20435;-80
2023/07/07 08:06:31;;;;;;;10.30;5.70;;;22.60;58.90;;;;;;4959429;29;20197;-80
2023/07/07 08:08:57;;;;;;;10.60;5.60;;;22.70;58.50;;;;;;4964336;28;20456;-79
2023/07/07 08:11:48;;;;;;;10.60;6.00;;;22.80;58.00;;;;;;4971489;28;20484;-80
2023/07/07 08:14:19;;;;;;;15.37;5.57;;;22.90;57.80;;;;;;4956232;29;20218;-79
2023/07/07 08:16:46;;;;;;;9.57;5.00;;;23.00;57.80;;;;;;4964672;28;20449;-81
2023/07/07 08:19:11;;;;;;;10.50;4.97;;;23.20;57.80;;;;;;4950362;28;20426;-81
2023/07/07 08:21:37;;;;;;;7.23;4.70;;;23.30;57.00;;;;;;4958247;28;20478;-81
2023/07/07 08:24:05;;;;;;;8.70;4.73;;;23.30;57.20;;;;;;4963406;28;20202;-82
2023/07/07 08:26:31;;;;;;;9.83;5.33;;;23.50;56.80;;;;;;4955295;28;20280;-81
2023/07/07 08:28:57;;;;;;;9.47;5.10;;;23.50;56.60;;;;;;4963693;28;20449;-81
2023/07/07 08:31:22;;;;;;;7.47;5.10;;;23.70;56.10;;;;;;4972711;28;20532;-81
2023/07/07 08:33:49;;;;;;;11.27;5.93;;;23.80;55.60;;;;;;4957388;28;20203;-80
2023/07/07 08:36:15;;;;;;;8.37;5.13;;;23.80;55.40;;;;;;4963908;28;20224;-79
2023/07/07 08:38:41;;;;;;;8.47;5.00;;;24.00;54.80;;;;;;4959979;29;20444;-80
2023/07/07 08:41:06;;;;;;;10.57;5.90;;;24.20;54.50;;;;;;4954774;28;20224;-81
2023/07/07 08:43:32;;;;;;;9.37;5.13;;;24.30;54.40;;;;;;4954593;28;20240;-82
2023/07/07 08:46:17;;;;;;;10.90;5.77;;;24.50;53.80;;;;;;4959905;29;20205;-81
2023/07/07 08:49:09;;;;;;;9.87;5.47;;;24.70;53.70;;;;;;4963283;28;20357;-82
2023/07/07 08:51:39;;;;;;;8.90;5.57;;;25.00;53.00;;;;;;4958313;28;20482;-81
2023/07/07 08:54:28;;;;;;;10.13;5.70;;;25.10;52.50;;;;;;4969637;28;20430;-82
2023/07/07 08:57:05;;;;;;;12.40;6.10;;;25.20;51.60;;;;;;4962637;28;20462;-82
2023/07/07 08:59:58;;;;;;;14.90;6.70;;;25.40;51.60;;;;;;4970201;28;20470;-80
2023/07/07 09:02:33;;;;;;;9.70;5.23;;;25.40;51.20;;;;;;4959250;28;20438;-82
2023/07/07 09:05:07;;;;;;;10.30;5.50;;;25.50;51.30;;;;;;4963147;28;20438;-80
2023/07/07 09:07:48;;;;;;;8.63;4.73;;;25.50;50.60;;;;;;4957321;28;20481;-80
2023/07/07 09:10:34;;;;;;;12.57;5.97;;;25.50;50.60;;;;;;4949929;28;20477;-81
2023/07/07 09:13:21;;;;;;;12.70;5.67;;;25.60;49.80;;;;;;4965602;28;20502;-80
2023/07/07 09:16:11;;;;;;;9.93;5.33;;;25.70;49.10;;;;;;4949322;29;20800;-80
2023/07/07 09:18:48;;;;;;;11.47;5.80;;;25.70;49.30;;;;;;4963591;28;20565;-80
2023/07/07 09:21:25;;;;;;;12.20;5.50;;;25.90;46.90;;;;;;4966001;28;20518;-81
2023/07/07 09:23:54;;;;;;;12.43;5.37;;;26.00;47.10;;;;;;4959456;28;20444;-81
2023/07/07 09:26:29;;;;;;;13.20;6.10;;;26.00;47.50;;;;;;4965118;28;20449;-79
2023/07/07 09:28:56;;;;;;;9.57;5.47;;;26.00;46.50;;;;;;4956929;29;20426;-81
2023/07/07 09:31:37;;;;;;;10.37;5.57;;;26.10;45.40;;;;;;4959130;28;20470;-80
2023/07/07 09:34:04;;;;;;;10.20;5.80;;;26.20;43.70;;;;;;4959062;28;20440;-80
2023/07/07 09:36:58;;;;;;;10.43;5.60;;;26.30;42.40;;;;;;4951771;28;20447;-81
2023/07/07 09:39:30;;;;;;;14.13;6.90;;;26.40;42.00;;;;;;4946705;29;20509;-82
2023/07/07 09:42:01;;;;;;;11.73;6.10;;;26.40;42.80;;;;;;4960047;28;20432;-80
2023/07/07 09:44:57;;;;;;;11.00;6.10;;;26.50;41.60;;;;;;4956397;29;20487;-80
2023/07/07 09:47:48;;;;;;;14.67;6.40;;;26.60;40.00;;;;;;4962130;29;20418;-78
2023/07/07 09:50:20;;;;;;;13.73;6.30;;;26.50;40.60;;;;;;4964833;28;20481;-79
2023/07/07 09:52:54;;;;;;;13.67;5.90;;;26.50;40.80;;;;;;4968824;28;20584;-83
2023/07/07 09:55:21;;;;;;;11.50;6.40;;;26.60;41.50;;;;;;4961445;28;20438;-80
2023/07/07 09:58:12;;;;;;;11.90;6.30;;;26.60;41.20;;;;;;4964047;28;20443;-79
2023/07/07 10:00:39;;;;;;;10.10;5.80;;;26.70;40.00;;;;;;4959011;28;20494;-80
2023/07/07 10:03:21;;;;;;;9.73;6.07;;;26.90;37.90;;;;;;4970737;28;20947;-79
2023/07/07 10:05:49;;;;;;;9.47;5.50;;;26.90;39.80;;;;;;4965481;29;20441;-80
2023/07/07 10:08:14;;;;;;;9.37;4.77;;;27.00;40.80;;;;;;4973356;28;20489;-81
2023/07/07 10:10:40;;;;;;;18.20;6.80;;;27.10;41.90;;;;;;4960889;28;20473;-80
2023/07/07 10:13:11;;;;;;;12.27;6.73;;;27.20;42.20;;;;;;4963486;28;20183;-81
2023/07/07 10:15:44;;;;;;;9.47;6.03;;;27.20;42.00;;;;;;4951395;28;20286;-82
2023/07/07 10:18:22;;;;;;;12.20;5.57;;;27.40;41.50;;;;;;4963444;28;20431;-80
2023/07/07 10:20:48;;;;;;;10.30;6.27;;;27.90;40.40;;;;;;4951022;28;20484;-80
2023/07/07 10:23:14;;;;;;;11.60;6.27;;;28.10;38.40;;;;;;4965634;28;20438;-80
2023/07/07 10:25:41;;;;;;;11.00;6.20;;;28.40;38.40;;;;;;4951211;28;20211;-80
2023/07/07 10:28:11;;;;;;;11.37;5.90;;;28.60;38.00;;;;;;4958461;28;20432;-79
2023/07/07 10:30:38;;;;;;;8.87;5.87;;;28.80;38.20;;;;;;4961386;28;20464;-81
2023/07/07 10:33:04;;;;;;;14.77;6.87;;;29.20;36.80;;;;;;4951363;28;20950;-80
2023/07/07 10:35:31;;;;;;;23.77;8.27;;;29.30;35.50;;;;;;4970407;28;20500;-81
2023/07/07 10:38:03;;;;;;;13.47;7.60;;;29.40;33.70;;;;;;4961539;28;20456;-81
2023/07/07 10:40:29;;;;;;;15.60;8.73;;;29.60;33.50;;;;;;4951782;28;20578;-80
2023/07/07 10:42:57;;;;;;;16.90;8.23;;;29.70;33.50;;;;;;4951248;28;20460;-81
2023/07/07 10:45:23;;;;;;;14.67;8.13;;;29.80;33.60;;;;;;4962243;28;20522;-80
2023/07/07 10:47:50;;;;;;;15.70;7.70;;;29.90;33.90;;;;;;4953652;29;20439;-81
2023/07/07 10:50:18;;;;;;;13.37;8.43;;;30.30;32.90;;;;;;4959631;28;20475;-81
2023/07/07 10:52:59;;;;;;;17.73;10.57;;;30.40;31.90;;;;;;4955047;28;20476;-80
2023/07/07 10:55:53;;;;;;;17.20;9.27;;;30.40;33.50;;;;;;4961431;29;20458;-81
2023/07/07 10:58:24;;;;;;;14.67;9.20;;;29.90;33.20;;;;;;4958188;29;20412;-81
2023/07/07 11:01:14;;;;;;;12.33;7.97;;;29.80;34.10;;;;;;4958873;28;20475;-79
2023/07/07 11:04:19;;;;;;;19.03;8.43;;;30.00;32.80;;;;;;4967358;28;20428;-82
2023/07/07 11:07:12;;;;;;;13.20;7.63;;;29.90;34.80;;;;;;4962713;29;20452;-81
2023/07/07 11:10:05;;;;;;;17.90;9.33;;;29.70;36.40;;;;;;4948215;28;20463;-79
2023/07/07 11:12:54;;;;;;;16.20;9.17;;;30.00;32.10;;;;;;4951669;28;20472;-81
2023/07/07 11:16:04;;;;;;;15.53;8.20;;;30.20;31.60;;;;;;4949008;29;20440;-80
2023/07/07 11:18:45;;;;;;;16.07;8.40;;;30.40;31.50;;;;;;4946193;29;20459;-80
2023/07/07 11:21:36;;;;;;;17.60;8.43;;;30.60;32.10;;;;;;4953596;28;21069;-81
2023/07/07 11:24:13;;;;;;;16.70;8.97;;;30.50;31.90;;;;;;4964729;28;20438;-81
2023/07/07 11:26:57;;;;;;;14.23;7.90;;;30.60;32.50;;;;;;4956526;28;20531;-81
2023/07/07 11:29:43;;;;;;;13.00;8.07;;;30.80;31.60;;;;;;4955048;28;20464;-80
2023/07/07 11:32:38;;;;;;;15.20;7.60;;;30.60;31.30;;;;;;4953477;28;20829;-81
2023/07/07 11:35:13;;;;;;;16.83;7.50;;;30.80;31.90;;;;;;4959424;28;20432;-79
2023/07/07 11:38:13;;;;;;;14.83;8.40;;;31.10;30.80;;;;;;4945149;29;20436;-80
2023/07/07 11:40:47;;;;;;;20.27;8.10;;;31.30;30.10;;;;;;4947952;28;20495;-82
2023/07/07 11:43:34;;;;;;;16.23;8.83;;;31.00;30.50;;;;;;4964351;28;20442;-81
2023/07/07 11:46:00;;;;;;;13.40;7.37;;;31.10;29.90;;;;;;4952270;29;20438;-80
2023/07/07 11:48:52;;;;;;;13.13;7.13;;;31.40;30.40;;;;;;4954854;29;20499;-79
2023/07/07 11:51:33;;;;;;;15.20;7.63;;;31.60;28.00;;;;;;4951553;28;20745;-80
2023/07/07 11:54:36;;;;;;;18.97;9.07;;;31.70;27.80;;;;;;4953423;28;20507;-80
2023/07/07 11:57:20;;;;;;;15.33;8.90;;;31.90;27.50;;;;;;4954795;28;20440;-80
2023/07/07 12:00:06;;;;;;;13.93;7.80;;;32.30;25.90;;;;;;4958785;28;20605;-81
2023/07/07 12:02:59;;;;;;;16.47;7.63;;;32.40;26.10;;;;;;4956781;28;20436;-79
2023/07/07 12:05:33;;;;;;;16.03;8.00;;;32.40;26.60;;;;;;4949498;28;20463;-79
2023/07/07 12:08:05;;;;;;;15.50;8.67;;;32.10;26.80;;;;;;4963770;29;20462;-81
2023/07/07 12:10:41;;;;;;;14.10;7.93;;;32.20;26.60;;;;;;4971209;28;20469;-80
2023/07/07 12:13:19;;;;;;;16.30;9.10;;;32.20;26.60;;;;;;4968191;28;20450;-81
2023/07/07 12:15:52;;;;;;;12.10;7.80;;;32.30;26.50;;;;;;4949323;29;21017;-81
2023/07/07 12:18:26;;;;;;;16.10;8.50;;;32.20;26.50;;;;;;4955821;29;20425;-81
2023/07/07 12:21:32;;;;;;;14.00;7.10;;;32.00;26.70;;;;;;4968604;28;20592;-81
2023/07/07 12:24:24;;;;;;;17.33;8.13;;;32.30;27.10;;;;;;4927491;29;20497;-81
2023/07/07 12:27:00;;;;;;;15.70;7.80;;;32.70;26.60;;;;;;4929579;29;20437;-81
2023/07/07 12:29:27;;;;;;;14.27;7.03;;;33.10;24.90;;;;;;4923604;29;20508;-80
2023/07/07 12:31:54;;;;;;;12.10;7.40;;;33.20;24.60;;;;;;4918650;29;20438;-86
2023/07/07 12:34:57;;;;;;;13.33;7.47;;;32.90;24.60;;;;;;4931106;29;20466;-83
2023/07/07 12:37:23;;;;;;;12.80;7.20;;;32.90;24.60;;;;;;4899950;29;20458;-85
2023/07/07 12:39:54;;;;;;;15.27;7.90;;;32.90;25.60;;;;;;4923849;29;20505;-82
2023/07/07 12:42:22;;;;;;;12.53;8.10;;;33.00;26.80;;;;;;4923968;29;20970;-83
2023/07/07 12:44:51;;;;;;;15.00;7.30;;;33.20;26.40;;;;;;4927739;29;20445;-84
2023/07/07 12:47:37;;;;;;;19.83;8.50;;;33.20;26.50;;;;;;4923644;29;20480;-83
2023/07/07 12:50:16;;;;;;;14.50;7.70;;;32.90;26.70;;;;;;4921130;29;20584;-82
2023/07/07 12:52:45;;;;;;;14.90;8.20;;;33.00;26.20;;;;;;4925722;29;20433;-83
2023/07/07 12:55:24;;;;;;;13.00;7.13;;;33.10;26.20;;;;;;4924274;29;20457;-83
2023/07/07 12:58:05;;;;;;;13.73;7.17;;;32.60;26.90;;;;;;4947633;29;20454;-82
2023/07/07 13:00:33;;;;;;;12.30;7.10;;;33.30;24.30;;;;;;4953892;28;20484;-84